Time;durP1;ratioP1;P1;durP2;ratioP2;P2;SDS_P1;SDS_P2;PMS_P1;PMS_P2;Temp;Humidity;BMP_temperature;BMP_pressure;BME280_temperature;BME280_humidity;BME280_pressure;Samples;Min_cycle;Max_cycle;Signal;HPM_P1;HPM_P2
2022/05/25 00:02:08;;;;;;;;;2.50;1.00;;;;;16.33;93.47;101138.50;5060752;28;45406;-84
2022/05/25 00:04:34;;;;;;;;;1.50;1.50;;;;;16.30;93.63;101137.53;5079262;28;45331;-86
2022/05/25 00:06:59;;;;;;;;;0.25;0.25;;;;;16.29;93.88;101139.25;5060830;27;47184;-85
2022/05/25 00:09:25;;;;;;;;;0.50;0.50;;;;;16.27;94.21;101133.09;5079235;28;45372;-85
2022/05/25 00:11:52;;;;;;;;;2.50;1.25;;;;;16.24;93.95;101136.53;5077859;28;45326;-86
2022/05/25 00:14:18;;;;;;;;;1.00;1.00;;;;;16.21;94.83;101138.19;5060906;28;45500;-84
2022/05/25 00:16:44;;;;;;;;;1.00;1.00;;;;;16.19;94.56;101127.69;5078626;27;45446;-86
2022/05/25 00:21:54;;;;;;;;;1.25;1.25;;;;;16.14;95.35;101136.25;5081571;28;46239;-87
2022/05/25 00:24:20;;;;;;;;;0.75;0.75;;;;;16.11;95.02;101129.19;5084447;28;45584;-85
2022/05/25 00:26:46;;;;;;;;;0.75;0.75;;;;;16.06;95.91;101125.59;5081679;28;46434;-85
2022/05/25 00:29:11;;;;;;;;;0.75;0.75;;;;;16.05;95.62;101135.13;5060427;28;45353;-86
2022/05/25 00:31:37;;;;;;;;;0.75;0.75;;;;;16.05;96.23;101131.66;5078588;28;45315;-85
2022/05/25 00:34:02;;;;;;;;;3.25;1.50;;;;;16.05;97.31;101137.75;5078769;27;45321;-85
2022/05/25 00:36:28;;;;;;;;;1.50;0.75;;;;;16.02;97.49;101139.38;5078722;27;46387;-83
2022/05/25 00:38:54;;;;;;;;;1.75;0.75;;;;;16.00;97.86;101128.91;5078388;28;45185;-82
2022/05/25 00:41:30;;;;;;;;;1.50;1.50;;;;;16.01;98.44;101146.34;5078912;28;45304;-85
2022/05/25 00:43:57;;;;;;;;;2.25;0.75;;;;;15.97;99.20;101139.25;5079304;28;45330;-87
2022/05/25 00:46:25;;;;;;;;;2.25;1.50;;;;;15.99;100.00;101145.41;5078341;28;46069;-86
2022/05/25 00:48:54;;;;;;;;;1.50;1.50;;;;;15.95;100.00;101148.78;5079339;28;45906;-86
2022/05/25 00:51:25;;;;;;;;;2.75;2.25;;;;;15.90;100.00;101145.16;5080161;28;45267;-86
2022/05/25 00:53:59;;;;;;;;;2.00;2.00;;;;;15.90;100.00;101160.84;5078583;28;45847;-85
2022/05/25 00:56:27;;;;;;;;;0.75;0.75;;;;;15.89;100.00;101153.84;5078014;28;45981;-86
2022/05/25 00:59:14;;;;;;;;;1.00;1.00;;;;;15.88;100.00;101157.28;5078123;28;45390;-85
2022/05/25 01:01:41;;;;;;;;;1.50;1.50;;;;;15.87;100.00;101159.03;5078519;28;45310;-86
2022/05/25 01:04:07;;;;;;;;;1.75;1.75;;;;;15.87;100.00;101161.63;5078460;28;45248;-85
2022/05/25 01:06:57;;;;;;;;;2.00;2.00;;;;;15.86;100.00;101161.56;5078784;28;46376;-86
2022/05/25 01:09:41;;;;;;;;;0.50;0.50;;;;;15.85;100.00;101159.81;5078052;28;45397;-86
2022/05/25 01:12:48;;;;;;;;;0.75;0.50;;;;;15.77;100.00;101155.22;5078456;28;45431;-86
2022/05/25 01:15:47;;;;;;;;;0.50;0.50;;;;;15.71;100.00;101167.22;5062672;28;45419;-86
2022/05/25 01:18:40;;;;;;;;;1.00;1.00;;;;;15.67;100.00;101171.47;5063446;27;46708;-86
2022/05/25 01:21:31;;;;;;;;;0.75;0.75;;;;;15.69;100.00;101177.63;5078202;27;45280;-85
2022/05/25 01:24:08;;;;;;;;;0.50;0.50;;;;;15.68;100.00;101177.56;5028977;28;45520;-86
2022/05/25 01:26:57;;;;;;;;;1.00;1.00;;;;;15.62;100.00;101175.66;5078150;27;45275;-86
2022/05/25 01:29:49;;;;;;;;;1.25;1.25;;;;;15.58;100.00;101171.19;5077990;28;46310;-86
2022/05/25 01:32:32;;;;;;;;;1.00;1.00;;;;;15.58;100.00;101181.63;5077639;28;45821;-85
2022/05/25 01:35:14;;;;;;;;;2.50;2.50;;;;;15.56;100.00;101178.09;5078145;28;45366;-86
2022/05/25 01:37:56;;;;;;;;;1.25;1.25;;;;;15.54;100.00;101183.25;5077743;27;45311;-85
2022/05/25 01:40:31;;;;;;;;;1.75;1.75;;;;;15.56;100.00;101180.69;5059153;28;47625;-85
2022/05/25 01:43:21;;;;;;;;;1.00;1.00;;;;;15.56;100.00;101188.53;5077388;28;45941;-85
2022/05/25 01:45:53;;;;;;;;;2.25;2.25;;;;;15.54;100.00;101193.69;5079422;27;45399;-87
2022/05/25 01:48:22;;;;;;;;;1.50;1.50;;;;;15.55;100.00;101197.19;5078121;27;45799;-86
2022/05/25 01:51:03;;;;;;;;;1.25;1.25;;;;;15.54;100.00;101192.81;5059281;28;46543;-85
2022/05/25 01:53:35;;;;;;;;;3.50;1.50;;;;;15.52;100.00;101191.88;5077967;28;45853;-86
2022/05/25 01:56:05;;;;;;;;;1.75;1.75;;;;;15.45;100.00;101194.28;5077798;28;45239;-87
2022/05/25 01:58:36;;;;;;;;;2.25;2.25;;;;;15.41;100.00;101194.16;5078186;28;45315;-86
2022/05/25 02:01:05;;;;;;;;;1.50;1.50;;;;;15.38;100.00;101202.78;5077753;28;45280;-86
2022/05/25 02:06:48;;;;;;;;;1.50;1.50;;;;;15.36;100.00;101203.56;5077220;28;45456;-86
2022/05/25 02:09:35;;;;;;;;;2.00;2.00;;;;;15.32;100.00;101197.34;5077653;28;45519;-85
2022/05/25 02:12:30;;;;;;;;;2.25;2.00;;;;;15.27;100.00;101193.72;5079570;28;45536;-85
2022/05/25 02:15:04;;;;;;;;;1.75;1.00;;;;;15.25;100.00;101198.00;5084783;28;44984;-87
2022/05/25 02:17:29;;;;;;;;;0.25;0.25;;;;;15.21;100.00;101204.84;5078462;27;45288;-86
2022/05/25 02:20:12;;;;;;;;;1.00;1.00;;;;;15.19;100.00;101206.53;5059281;28;45538;-85
2022/05/25 02:22:44;;;;;;;;;0.75;0.75;;;;;15.17;100.00;101208.19;5081760;27;45379;-85
2022/05/25 02:25:23;;;;;;;;;1.00;1.00;;;;;15.14;100.00;101208.09;5077747;28;45361;-84
2022/05/25 02:28:01;;;;;;;;;2.75;1.00;;;;;15.08;100.00;101203.56;5077073;28;45247;-82
2022/05/25 02:30:31;;;;;;;;;1.00;1.00;;;;;15.06;100.00;101205.25;5077232;28;45338;-84
2022/05/25 02:33:07;;;;;;;;;2.50;2.00;;;;;15.05;100.00;101205.19;5058364;28;46936;-85
2022/05/25 02:35:34;;;;;;;;;1.50;1.00;;;;;15.04;100.00;101209.53;5077453;27;45252;-86
2022/05/25 02:38:05;;;;;;;;;1.00;1.00;;;;;15.00;100.00;101208.53;5077282;28;45289;-85
2022/05/25 02:40:33;;;;;;;;;2.50;2.50;;;;;15.02;100.00;101219.00;5077777;28;45330;-86
2022/05/25 02:42:58;;;;;;;;;2.00;2.00;;;;;14.98;100.00;101218.03;5079497;28;46216;-87
2022/05/25 02:45:24;;;;;;;;;3.00;2.50;;;;;14.98;100.00;101222.34;5077113;28;45807;-86
2022/05/25 02:47:50;;;;;;;;;4.00;3.00;;;;;14.95;100.00;101230.94;5076617;28;45263;-86
2022/05/25 02:50:16;;;;;;;;;2.50;2.50;;;;;14.94;100.00;101238.72;5076998;28;45599;-86
2022/05/25 02:52:42;;;;;;;;;2.25;2.25;;;;;14.91;100.00;101242.09;5076437;28;45319;-86
2022/05/25 02:55:08;;;;;;;;;2.00;2.00;;;;;14.92;100.00;101235.19;5076628;28;45370;-86
2022/05/25 02:57:34;;;;;;;;;3.00;2.00;;;;;14.91;100.00;101230.78;5076941;28;45288;-86
2022/05/25 03:00:00;;;;;;;;;3.00;3.00;;;;;14.92;100.00;101237.78;5075897;28;45381;-86
2022/05/25 03:02:26;;;;;;;;;2.00;2.00;;;;;14.90;100.00;101235.09;5076419;28;46064;-86
2022/05/25 03:04:51;;;;;;;;;3.50;3.00;;;;;14.89;100.00;101246.41;5076482;28;45430;-86
2022/05/25 03:07:17;;;;;;;;;2.00;2.00;;;;;14.86;100.00;101248.91;5058293;28;45315;-85
2022/05/25 03:09:42;;;;;;;;;2.25;2.25;;;;;14.83;100.00;101244.47;5077644;28;45577;-86
2022/05/25 03:12:10;;;;;;;;;3.00;3.00;;;;;14.86;100.00;101251.50;5075411;28;45437;-85
2022/05/25 03:14:36;;;;;;;;;4.00;4.00;;;;;14.86;100.00;101252.38;5076220;28;45405;-84
2022/05/25 03:17:12;;;;;;;;;3.00;3.00;;;;;14.89;100.00;101258.53;5076870;28;45345;-84
2022/05/25 03:19:42;;;;;;;;;2.00;2.00;;;;;14.84;100.00;101246.25;5076553;28;45342;-85
2022/05/25 03:22:09;;;;;;;;;3.00;3.00;;;;;14.84;100.00;101259.28;5075907;28;46245;-85
2022/05/25 03:24:34;;;;;;;;;3.00;3.00;;;;;14.82;100.00;101263.56;5076585;28;45245;-86
2022/05/25 03:27:00;;;;;;;;;3.00;3.00;;;;;14.81;100.00;101271.28;5076722;27;45387;-85
2022/05/25 03:29:26;;;;;;;;;2.00;2.00;;;;;14.81;100.00;101276.50;5061789;27;45235;-86
2022/05/25 03:31:53;;;;;;;;;4.75;3.25;;;;;14.81;100.00;101268.69;5079538;28;45389;-86
2022/05/25 03:34:19;;;;;;;;;3.00;3.00;;;;;14.85;100.00;101281.00;5079583;27;45233;-86
2022/05/25 03:36:45;;;;;;;;;3.75;3.25;;;;;14.90;100.00;101287.25;5061492;28;45461;-86
2022/05/25 03:39:12;;;;;;;;;3.00;3.00;;;;;14.99;100.00;101287.59;5083317;28;45335;-86
2022/05/25 03:41:37;;;;;;;;;4.00;4.00;;;;;15.08;100.00;101288.75;5080239;28;45426;-85
2022/05/25 03:44:03;;;;;;;;;3.00;3.00;;;;;15.05;100.00;101291.22;5079731;28;45310;-85
2022/05/25 03:46:29;;;;;;;;;4.50;4.50;;;;;15.04;100.00;101295.56;5079497;27;45505;-86
2022/05/25 03:48:54;;;;;;;;;3.75;3.25;;;;;15.03;100.00;101309.44;5079683;27;45253;-87
2022/05/25 03:51:20;;;;;;;;;5.25;4.00;;;;;15.04;100.00;101311.22;5061125;28;47909;-86
2022/05/25 03:53:46;;;;;;;;;4.75;4.75;;;;;15.02;100.00;101311.16;5079304;27;45366;-86
2022/05/25 03:56:11;;;;;;;;;5.00;5.00;;;;;15.00;100.00;101307.63;5079335;28;45371;-86
2022/05/25 03:58:37;;;;;;;;;5.00;5.00;;;;;14.99;100.00;101313.69;5079735;28;45503;-86
2022/05/25 04:01:03;;;;;;;;;4.50;4.50;;;;;14.94;100.00;101315.22;5082641;27;46039;-85
2022/05/25 04:03:28;;;;;;;;;4.75;3.75;;;;;14.91;100.00;101320.31;5084352;28;45150;-87
2022/05/25 04:05:54;;;;;;;;;5.75;5.50;;;;;14.87;100.00;101315.84;5062350;28;45429;-85
2022/05/25 04:08:21;;;;;;;;;4.75;4.00;;;;;14.85;100.00;101315.78;5081410;28;45569;-85
2022/05/25 04:10:46;;;;;;;;;4.00;4.00;;;;;14.83;100.00;101311.34;5078889;28;45446;-86
2022/05/25 04:13:12;;;;;;;;;4.50;4.50;;;;;14.79;100.00;101314.69;5078719;27;45321;-83
2022/05/25 04:15:37;;;;;;;;;5.00;4.00;;;;;14.76;100.00;101315.44;5078995;28;45303;-82
2022/05/25 04:18:04;;;;;;;;;5.25;4.75;;;;;14.74;100.00;101311.91;5079429;27;45456;-83
2022/05/25 04:20:31;;;;;;;;;4.00;3.50;;;;;14.73;100.00;101317.97;5078852;28;46103;-83
2022/05/25 04:22:57;;;;;;;;;4.00;4.00;;;;;14.72;100.00;101326.63;5078715;28;45247;-84
2022/05/25 04:25:24;;;;;;;;;6.00;6.00;;;;;14.68;100.00;101316.91;5078957;28;45404;-84
2022/05/25 04:27:52;;;;;;;;;5.75;5.75;;;;;14.65;100.00;101322.88;5079966;27;45485;-84
2022/05/25 04:30:21;;;;;;;;;6.50;5.00;;;;;14.66;100.00;101326.34;5079600;28;45437;-85
2022/05/25 04:32:47;;;;;;;;;7.25;6.00;;;;;14.66;100.00;101334.16;5078647;28;45876;-85
2022/05/25 04:35:14;;;;;;;;;5.25;5.00;;;;;14.64;100.00;101335.81;5080128;28;45253;-84
2022/05/25 04:37:49;;;;;;;;;4.75;4.75;;;;;14.65;100.00;101335.00;5080826;28;45470;-85
2022/05/25 04:40:21;;;;;;;;;4.00;4.00;;;;;14.64;100.00;101335.81;5079443;27;45443;-86
2022/05/25 04:42:47;;;;;;;;;5.00;5.00;;;;;14.62;100.00;101338.38;5079908;27;45286;-84
2022/05/25 04:45:13;;;;;;;;;6.25;4.50;;;;;14.63;100.00;101347.09;5078707;28;45284;-84
2022/05/25 04:47:40;;;;;;;;;6.00;5.00;;;;;14.61;100.00;101349.63;5076947;28;45552;-84
2022/05/25 04:50:07;;;;;;;;;5.00;5.00;;;;;14.57;100.00;101345.16;5078128;27;46240;-82
2022/05/25 04:52:37;;;;;;;;;5.00;5.00;;;;;14.57;100.00;101352.06;5077811;28;45442;-82
2022/05/25 04:55:05;;;;;;;;;5.00;5.00;;;;;14.53;100.00;101351.94;5078264;28;45272;-83
2022/05/25 04:57:31;;;;;;;;;5.00;5.00;;;;;14.55;100.00;101359.84;5077961;28;45640;-83
2022/05/25 04:59:59;;;;;;;;;5.00;5.00;;;;;14.56;100.00;101361.63;5077532;28;45362;-83
2022/05/25 05:02:29;;;;;;;;;6.50;5.00;;;;;14.59;100.00;101366.06;5077781;28;45726;-83
2022/05/25 05:04:56;;;;;;;;;7.50;6.00;;;;;14.58;100.00;101369.47;5077502;28;45439;-83
2022/05/25 05:07:33;;;;;;;;;6.25;5.00;;;;;14.55;100.00;101372.88;5081079;28;45416;-83
2022/05/25 05:10:03;;;;;;;;;7.00;6.00;;;;;14.53;100.00;101371.91;5077230;27;45423;-83
2022/05/25 05:12:29;;;;;;;;;6.00;5.25;;;;;14.54;100.00;101376.31;5077535;28;45351;-83
2022/05/25 05:14:57;;;;;;;;;8.00;6.50;;;;;14.54;100.00;101382.38;5077406;28;45395;-83
2022/05/25 05:17:24;;;;;;;;;5.75;5.75;;;;;14.55;100.00;101384.16;5077004;28;45674;-83
2022/05/25 05:19:50;;;;;;;;;5.25;5.25;;;;;14.58;100.00;101388.59;5077240;27;45667;-82
2022/05/25 05:22:17;;;;;;;;;6.50;5.25;;;;;14.59;100.00;101385.16;5077737;28;45303;-83
2022/05/25 05:24:43;;;;;;;;;9.00;6.00;;;;;14.60;100.00;101381.72;5078981;28;45248;-82
2022/05/25 05:27:08;;;;;;;;;4.75;4.75;;;;;14.60;100.00;101381.72;5077781;28;45673;-82
2022/05/25 05:29:34;;;;;;;;;6.75;5.75;;;;;14.61;100.00;101383.50;5077749;28;45386;-83
2022/05/25 05:32:00;;;;;;;;;9.00;7.75;;;;;14.65;100.00;101387.13;5077008;28;45363;-82
2022/05/25 05:34:28;;;;;;;;;8.00;7.00;;;;;14.63;100.00;101374.03;5073929;28;45474;-84
2022/05/25 05:37:03;;;;;;;;;5.25;5.25;;;;;14.69;100.00;101376.00;5076831;28;45443;-82
2022/05/25 05:39:33;;;;;;;;;8.50;7.25;;;;;14.72;100.00;101368.31;5076474;28;45502;-82
2022/05/25 05:42:07;;;;;;;;;6.00;6.00;;;;;14.74;100.00;101364.03;5076296;28;45763;-82
2022/05/25 05:44:38;;;;;;;;;5.00;5.00;;;;;14.75;100.00;101363.19;5076044;28;45288;-84
2022/05/25 05:47:09;;;;;;;;;6.25;4.50;;;;;14.76;100.00;101357.16;5081556;27;45450;-83
2022/05/25 05:49:39;;;;;;;;;5.75;5.25;;;;;14.79;100.00;101370.31;5090285;27;45353;-85
2022/05/25 05:52:06;;;;;;;;;5.00;4.25;;;;;14.80;100.00;101365.97;5084431;28;45699;-83
2022/05/25 05:54:32;;;;;;;;;4.50;4.00;;;;;14.80;100.00;101369.47;5077202;27;45783;-82
2022/05/25 05:56:58;;;;;;;;;3.00;3.00;;;;;14.84;100.00;101371.38;5084987;27;45240;-85
2022/05/25 05:59:24;;;;;;;;;3.25;3.25;;;;;14.85;100.00;101372.25;5080391;27;45389;-85
2022/05/25 06:01:50;;;;;;;;;1.00;1.00;;;;;14.88;100.00;101372.38;5077126;28;45317;-81
2022/05/25 06:04:16;;;;;;;;;4.75;4.00;;;;;14.91;100.00;101379.41;5076582;28;45415;-81
2022/05/25 06:06:42;;;;;;;;;3.25;3.25;;;;;14.94;100.00;101385.63;5077234;27;45401;-83
2022/05/25 06:09:09;;;;;;;;;3.75;3.00;;;;;14.91;100.00;101390.72;5058456;28;47858;-89
2022/05/25 06:11:41;;;;;;;;;3.00;3.00;;;;;14.94;100.00;101401.25;5058882;28;45893;-84
2022/05/25 06:14:08;;;;;;;;;4.25;3.75;;;;;14.94;100.00;101406.47;5077430;27;45402;-81
2022/05/25 06:19:41;;;;;;;;;4.25;4.25;;;;;14.92;100.00;101412.47;5084417;28;45417;-91
2022/05/25 06:22:14;;;;;;;;;2.50;2.50;;;;;14.91;100.00;101408.09;5020112;28;46172;-78
2022/05/25 06:24:51;;;;;;;;;6.25;3.75;;;;;14.93;100.00;101412.53;5037369;28;45305;-86
2022/05/25 06:27:18;;;;;;;;;3.75;3.75;;;;;14.96;100.00;101416.94;5036334;28;45484;-83
2022/05/25 06:29:49;;;;;;;;;3.25;2.00;;;;;14.94;100.00;101414.28;5060477;28;45418;-83
2022/05/25 06:32:18;;;;;;;;;4.50;3.75;;;;;14.95;100.00;101425.63;5053725;28;45363;-82
2022/05/25 06:34:47;;;;;;;;;2.50;2.50;;;;;14.94;100.00;101423.84;5053111;28;45506;-83
2022/05/25 06:37:19;;;;;;;;;3.50;3.50;;;;;14.96;100.00;101432.59;5053400;28;45644;-83
2022/05/25 06:39:46;;;;;;;;;3.00;3.00;;;;;14.99;100.00;101438.84;5051787;28;46246;-84
2022/05/25 06:42:12;;;;;;;;;3.25;3.25;;;;;15.01;100.00;101442.34;5053484;28;45959;-85
2022/05/25 06:44:38;;;;;;;;;4.00;3.25;;;;;15.04;100.00;101448.53;5041859;28;45459;-83
2022/05/25 06:47:05;;;;;;;;;3.75;3.75;;;;;15.06;100.00;101439.94;5033609;28;45565;-83
2022/05/25 06:49:31;;;;;;;;;5.50;4.00;;;;;15.09;100.00;101449.59;5033200;28;46584;-83
2022/05/25 06:51:57;;;;;;;;;5.00;3.00;;;;;15.08;100.00;101446.09;5034151;28;45782;-83
2022/05/25 06:54:23;;;;;;;;;5.25;3.75;;;;;15.07;100.00;101435.59;5061159;28;45363;-82
2022/05/25 06:56:50;;;;;;;;;2.25;2.25;;;;;15.08;100.00;101440.00;5076274;27;45520;-83
2022/05/25 06:59:15;;;;;;;;;3.25;2.00;;;;;15.14;100.00;101445.41;5075336;28;46145;-84
2022/05/25 07:01:42;;;;;;;;;2.50;1.50;;;;;15.14;100.00;101446.31;5075403;27;45368;-82
2022/05/25 07:04:09;;;;;;;;;2.25;2.25;;;;;15.19;100.00;101462.13;5079277;28;45355;-83
2022/05/25 07:06:39;;;;;;;;;2.00;2.00;;;;;15.24;100.00;101459.69;5090855;27;45599;-83
2022/05/25 07:09:07;;;;;;;;;1.00;1.00;;;;;15.26;99.00;101452.81;5062112;28;48077;-85
2022/05/25 07:11:33;;;;;;;;;1.75;1.75;;;;;15.27;95.64;101457.22;5081973;28;45855;-87
2022/05/25 07:14:00;;;;;;;;;1.00;1.00;;;;;15.29;95.51;101465.94;5080871;27;45437;-87
2022/05/25 07:16:26;;;;;;;;;0.50;0.00;;;;;15.32;94.39;101464.38;5062648;28;45330;-87
2022/05/25 07:18:52;;;;;;;;;2.00;1.00;;;;;15.31;92.95;101459.06;5079688;28;45568;-88
2022/05/25 07:21:21;;;;;;;;;1.25;1.25;;;;;15.38;91.63;101479.34;5081634;28;45350;-88
2022/05/25 07:23:50;;;;;;;;;0.75;0.75;;;;;15.43;90.34;101472.56;5081791;28;45347;-84
2022/05/25 07:26:16;;;;;;;;;2.00;2.00;;;;;15.49;90.70;101487.56;5065814;27;45531;-80
2022/05/25 07:28:42;;;;;;;;;1.25;0.00;;;;;15.51;90.48;101491.09;5088663;27;46525;-88
2022/05/25 07:31:14;;;;;;;;;0.25;0.25;;;;;15.55;88.82;101495.56;5093638;27;44749;-85
2022/05/25 07:33:44;;;;;;;;;0.00;0.00;;;;;15.57;88.15;101488.69;5085799;27;45350;-88
2022/05/25 07:36:11;;;;;;;;;1.00;1.00;;;;;15.60;87.81;101483.59;5099745;27;45448;-87
2022/05/25 07:38:44;;;;;;;;;0.75;0.00;;;;;15.60;87.17;101482.72;5095431;27;45352;-81
2022/05/25 07:41:10;;;;;;;;;2.00;0.25;;;;;15.60;84.76;101483.59;5095733;27;44884;-91
2022/05/25 07:43:39;;;;;;;;;2.00;1.00;;;;;15.66;85.50;101495.09;5102604;27;45260;-88
2022/05/25 07:46:05;;;;;;;;;0.25;0.25;;;;;15.68;83.28;101501.22;5101051;27;45338;-89
2022/05/25 07:48:31;;;;;;;;;1.00;1.00;;;;;15.71;81.26;101496.13;5094075;27;45621;-86
2022/05/25 07:50:57;;;;;;;;;0.00;0.00;;;;;15.77;81.63;101494.63;5079496;27;45248;-89
2022/05/25 07:56:07;;;;;;;;;0.00;0.00;;;;;15.86;79.47;101495.81;5092575;27;45745;-82
2022/05/25 07:58:32;;;;;;;;;2.25;0.75;;;;;15.89;78.48;101493.31;5099474;27;45327;-86
2022/05/25 08:01:10;;;;;;;;;0.25;0.00;;;;;15.89;76.28;101496.78;5098927;27;45364;-86
2022/05/25 08:06:20;;;;;;;;;1.50;0.00;;;;;15.81;77.17;101519.13;5099247;27;45438;-85
2022/05/25 08:08:46;;;;;;;;;1.00;1.00;;;;;15.81;77.21;101510.41;5098542;27;45488;-84
2022/05/25 08:11:15;;;;;;;;;0.00;0.00;;;;;15.82;76.09;101506.97;5099048;27;45674;-85
2022/05/25 08:13:49;;;;;;;;;0.00;0.00;;;;;15.84;75.16;101505.25;5098020;27;45346;-86
2022/05/25 08:16:15;;;;;;;;;0.00;0.00;;;;;15.88;74.01;101507.19;5099409;27;45436;-86
2022/05/25 08:18:41;;;;;;;;;0.00;0.00;;;;;15.89;74.01;101509.84;5099070;27;46186;-86
2022/05/25 08:21:07;;;;;;;;;0.00;0.00;;;;;15.90;73.21;101508.13;5081061;27;45354;-86
2022/05/25 08:23:33;;;;;;;;;0.50;0.50;;;;;15.94;72.53;101512.59;5099369;27;45263;-85
2022/05/25 08:25:58;;;;;;;;;0.50;0.00;;;;;15.90;72.22;101502.91;5080505;27;45635;-85
2022/05/25 08:28:24;;;;;;;;;0.00;0.00;;;;;15.92;72.48;101494.28;5098563;27;45323;-85
2022/05/25 08:30:50;;;;;;;;;0.50;0.50;;;;;15.96;71.48;101499.63;5098073;27;45322;-86
2022/05/25 08:33:18;;;;;;;;;0.00;0.00;;;;;16.01;69.82;101513.72;5098664;27;45410;-83
2022/05/25 08:35:45;;;;;;;;;0.00;0.00;;;;;16.01;68.44;101508.47;5098323;27;45414;-86
2022/05/25 08:38:10;;;;;;;;;0.00;0.00;;;;;16.07;65.35;101512.19;5079679;27;47852;-86
2022/05/25 08:40:37;;;;;;;;;0.00;0.00;;;;;16.04;65.72;101522.53;5098490;27;45231;-85
2022/05/25 08:43:12;;;;;;;;;0.00;0.00;;;;;16.05;67.11;101508.63;5098756;27;45337;-85
2022/05/25 08:45:42;;;;;;;;;0.75;0.00;;;;;16.10;65.18;101514.00;5080055;27;45530;-84
2022/05/25 08:48:11;;;;;;;;;0.00;0.00;;;;;16.14;63.93;101515.03;5098042;27;46451;-83
2022/05/25 08:50:38;;;;;;;;;0.00;0.00;;;;;16.15;64.53;101516.78;5098785;27;45832;-81
2022/05/25 08:53:07;;;;;;;;;0.00;0.00;;;;;16.16;62.88;101518.56;5080977;27;45372;-87
2022/05/25 08:56:10;;;;;;;;;0.25;0.00;;;;;16.18;59.86;101524.72;5099061;27;45602;-87
2022/05/25 08:58:42;;;;;;;;;0.00;0.00;;;;;16.17;62.17;101534.31;5100568;27;45428;-86
2022/05/25 09:01:12;;;;;;;;;0.25;0.25;;;;;16.22;61.57;101524.88;5099154;27;45613;-86
2022/05/25 09:03:43;;;;;;;;;0.00;0.00;;;;;16.23;61.16;101531.00;5098254;27;45365;-84
2022/05/25 09:06:21;;;;;;;;;4.00;0.00;;;;;16.24;61.41;101528.44;5080121;27;45705;-84
2022/05/25 09:09:30;;;;;;;;;0.00;0.00;;;;;16.25;58.91;101535.44;5098058;27;46271;-85
2022/05/25 09:12:03;;;;;;;;;0.00;0.00;;;;;16.26;59.56;101533.69;5080146;27;45775;-85
2022/05/25 09:14:49;;;;;;;;;0.00;0.00;;;;;16.28;60.57;101531.16;5098658;27;45362;-83
2022/05/25 09:17:52;;;;;;;;;0.00;0.00;;;;;16.34;60.71;101527.03;5099537;27;45197;-85
2022/05/25 09:20:23;;;;;;;;;0.00;0.00;;;;;16.33;61.29;101525.25;5056812;27;45362;-87
2022/05/25 09:22:48;;;;;;;;;0.00;0.00;;;;;16.34;60.63;101515.66;5098762;27;45688;-87
2022/05/25 09:25:15;;;;;;;;;0.00;0.00;;;;;16.38;61.91;101528.00;5098905;27;45400;-89
2022/05/25 09:27:52;;;;;;;;;0.50;0.00;;;;;16.41;61.62;101522.88;5103290;27;45307;-87
2022/05/25 09:30:19;;;;;;;;;0.00;0.00;;;;;16.43;60.38;101529.03;5100171;27;45337;-87
2022/05/25 09:32:48;;;;;;;;;0.75;0.00;;;;;16.45;60.50;101529.97;5098243;27;45341;-86
2022/05/25 09:35:29;;;;;;;;;0.00;0.00;;;;;16.50;58.99;101522.28;5098096;27;45306;-85
2022/05/25 09:38:40;;;;;;;;;1.00;0.75;;;;;16.54;59.89;101521.53;5079288;27;45573;-86
2022/05/25 09:41:11;;;;;;;;;0.00;0.00;;;;;16.55;60.94;101512.88;5060234;27;45411;-84
2022/05/25 09:43:38;;;;;;;;;0.25;0.25;;;;;16.58;61.53;101522.53;5098323;27;45829;-86
2022/05/25 09:46:26;;;;;;;;;0.00;0.00;;;;;16.66;62.36;101518.41;5100541;27;45433;-85
2022/05/25 09:49:02;;;;;;;;;0.00;0.00;;;;;16.75;61.49;101533.50;5100762;27;45425;-87
2022/05/25 09:51:42;;;;;;;;;0.00;0.00;;;;;16.77;61.28;101544.91;5080595;27;46504;-86
2022/05/25 09:54:26;;;;;;;;;0.00;0.00;;;;;16.80;61.86;101537.13;5098460;27;45609;-85
2022/05/25 09:57:31;;;;;;;;;1.00;0.00;;;;;16.82;62.07;101533.75;5097684;27;45896;-87
2022/05/25 10:00:06;;;;;;;;;0.75;0.75;;;;;16.84;62.08;101531.16;5015294;28;45518;-87
2022/05/25 10:02:50;;;;;;;;;0.00;0.00;;;;;16.89;62.79;101533.94;5088649;27;46576;-87
2022/05/25 10:05:23;;;;;;;;;0.75;0.75;;;;;16.93;63.25;101522.72;5097707;27;45680;-86
2022/05/25 10:08:18;;;;;;;;;0.25;0.00;;;;;16.96;62.48;101520.22;5097776;27;45260;-86
2022/05/25 10:10:52;;;;;;;;;1.75;0.00;;;;;17.00;61.55;101535.16;5097225;27;45429;-85
2022/05/25 10:13:25;;;;;;;;;0.00;0.00;;;;;17.06;59.97;101537.97;5100172;27;45474;-84
2022/05/25 10:15:51;;;;;;;;;0.00;0.00;;;;;17.11;60.46;101531.16;5099394;27;45299;-86
2022/05/25 10:18:37;;;;;;;;;0.00;0.00;;;;;17.21;61.20;101531.41;5097654;27;45383;-82
2022/05/25 10:21:07;;;;;;;;;0.00;0.00;;;;;17.32;61.22;101530.91;5097955;27;45450;-81
2022/05/25 10:23:33;;;;;;;;;0.00;0.00;;;;;17.33;61.19;101519.56;5097717;27;46240;-81
2022/05/25 10:26:31;;;;;;;;;1.00;0.00;;;;;17.34;60.51;101530.94;5097519;27;45275;-82
2022/05/25 10:29:06;;;;;;;;;0.00;0.00;;;;;17.38;60.02;101547.59;5089686;27;45252;-83
2022/05/25 10:37:39;;;;;;;;;0.00;0.00;;;;;17.57;59.09;101523.72;5103929;27;45414;-87
2022/05/25 10:40:08;;;;;;;;;0.50;0.00;;;;;17.59;58.64;101521.16;5080769;27;45242;-86
2022/05/25 10:42:44;;;;;;;;;0.00;0.00;;;;;17.63;58.11;101529.13;5101168;27;45252;-83
2022/05/25 10:45:19;;;;;;;;;0.50;0.00;;;;;17.67;56.75;101523.94;5100738;27;45516;-83
2022/05/25 10:47:51;;;;;;;;;0.00;0.00;;;;;17.70;56.86;101531.91;5097339;27;45331;-87
2022/05/25 10:50:38;;;;;;;;;0.00;0.00;;;;;17.68;55.27;101517.88;5098477;27;45287;-86
2022/05/25 10:53:27;;;;;;;;;0.00;0.00;;;;;17.69;55.74;101515.31;5098037;27;45362;-86
2022/05/25 10:56:08;;;;;;;;;0.00;0.00;;;;;17.78;56.15;101523.41;5096926;27;45440;-87
2022/05/25 10:58:45;;;;;;;;;0.00;0.00;;;;;17.92;57.49;101520.28;5097809;27;45371;-87
2022/05/25 11:01:24;;;;;;;;;1.00;1.00;;;;;18.07;57.64;101532.91;5098923;27;45330;-86
2022/05/25 11:04:05;;;;;;;;;2.00;0.25;;;;;18.20;56.25;101548.06;5097340;27;45482;-86
2022/05/25 11:07:11;;;;;;;;;0.00;0.00;;;;;18.29;53.91;101549.19;5097610;27;45417;-84
2022/05/25 11:09:47;;;;;;;;;1.00;1.00;;;;;18.40;54.93;101543.34;5097528;27;45775;-84
2022/05/25 11:12:38;;;;;;;;;0.00;0.00;;;;;18.54;54.66;101527.06;5103306;27;45346;-84
2022/05/25 11:15:30;;;;;;;;;0.00;0.00;;;;;18.62;55.14;101529.88;5082474;27;45361;-86
2022/05/25 11:18:09;;;;;;;;;0.00;0.00;;;;;18.69;55.05;101537.88;5041625;27;47713;-82
2022/05/25 11:20:49;;;;;;;;;2.50;1.00;;;;;18.77;54.07;101545.94;5079763;27;45361;-85
2022/05/25 11:23:54;;;;;;;;;0.00;0.00;;;;;18.79;53.81;101535.50;5096783;27;45401;-87
2022/05/25 11:27:01;;;;;;;;;0.00;0.00;;;;;18.92;53.68;101531.41;5096744;27;45276;-86
2022/05/25 11:29:55;;;;;;;;;0.50;0.50;;;;;18.97;52.58;101527.16;5089423;27;46181;-87
2022/05/25 11:32:42;;;;;;;;;1.00;1.00;;;;;19.00;52.75;101532.47;5082060;27;45405;-87
2022/05/25 11:35:24;;;;;;;;;0.00;0.00;;;;;19.08;51.83;101544.00;5079945;27;45417;-87
2022/05/25 11:38:08;;;;;;;;;3.00;1.25;;;;;19.15;50.56;101527.56;5097078;27;45310;-85
2022/05/25 11:40:52;;;;;;;;;2.75;1.25;;;;;19.22;51.00;101539.03;5101096;27;46204;-86
2022/05/25 11:43:47;;;;;;;;;0.25;0.25;;;;;19.32;51.26;101519.13;5099758;27;45339;-87
2022/05/25 11:46:24;;;;;;;;;0.00;0.00;;;;;19.39;52.17;101517.53;5096867;27;45386;-87
2022/05/25 11:49:15;;;;;;;;;0.00;0.00;;;;;19.55;50.52;101526.56;5098448;27;45438;-87
2022/05/25 11:52:10;;;;;;;;;1.00;0.00;;;;;19.60;51.19;101528.44;5101050;27;46402;-84
2022/05/25 11:55:06;;;;;;;;;0.00;0.00;;;;;19.58;50.63;101530.16;5099501;27;45257;-83
2022/05/25 11:58:03;;;;;;;;;0.00;0.00;;;;;19.68;51.18;101525.97;5081135;27;45376;-85
2022/05/25 12:00:59;;;;;;;;;1.00;1.00;;;;;19.77;50.16;101520.88;5099481;27;45555;-85
2022/05/25 12:03:43;;;;;;;;;0.00;0.00;;;;;19.77;48.72;101538.38;5099169;27;45577;-86
2022/05/25 12:06:19;;;;;;;;;0.00;0.00;;;;;19.78;48.49;101522.66;5099664;27;45188;-86
2022/05/25 12:09:17;;;;;;;;;0.00;0.00;;;;;19.90;48.27;101526.38;5100257;27;45332;-87